sensor_id;sensor_type;location;lat;lon;timestamp;P1;durP1;ratioP1;P2;durP2;ratioP2
13807;SDS011;40769;51.512;5.494;2023-04-03T00:01:30;4.18;;;3.65;;
13807;SDS011;40769;51.512;5.494;2023-04-03T00:03:55;4.10;;;3.80;;
13807;SDS011;40769;51.512;5.494;2023-04-03T00:06:22;4.00;;;3.60;;
13807;SDS011;40769;51.512;5.494;2023-04-03T00:08:48;3.42;;;3.13;;
13807;SDS011;40769;51.512;5.494;2023-04-03T00:11:14;3.67;;;3.37;;
13807;SDS011;40769;51.512;5.494;2023-04-03T00:13:40;3.63;;;3.33;;
13807;SDS011;40769;51.512;5.494;2023-04-03T00:16:06;4.40;;;4.03;;
13807;SDS011;40769;51.512;5.494;2023-04-03T00:18:33;4.97;;;4.47;;
13807;SDS011;40769;51.512;5.494;2023-04-03T00:20:59;6.23;;;5.23;;
13807;SDS011;40769;51.512;5.494;2023-04-03T00:23:25;5.70;;;5.20;;
13807;SDS011;40769;51.512;5.494;2023-04-03T00:25:51;5.33;;;4.83;;
13807;SDS011;40769;51.512;5.494;2023-04-03T00:28:17;3.60;;;3.30;;
13807;SDS011;40769;51.512;5.494;2023-04-03T00:30:43;4.63;;;4.23;;
13807;SDS011;40769;51.512;5.494;2023-04-03T00:33:10;4.50;;;4.13;;
13807;SDS011;40769;51.512;5.494;2023-04-03T00:35:37;3.73;;;3.43;;
13807;SDS011;40769;51.512;5.494;2023-04-03T00:38:03;3.17;;;2.87;;
13807;SDS011;40769;51.512;5.494;2023-04-03T00:40:32;3.70;;;3.40;;
13807;SDS011;40769;51.512;5.494;2023-04-03T00:43:08;3.77;;;3.47;;
13807;SDS011;40769;51.512;5.494;2023-04-03T00:45:50;4.40;;;3.93;;
13807;SDS011;40769;51.512;5.494;2023-04-03T00:48:21;4.73;;;4.33;;
13807;SDS011;40769;51.512;5.494;2023-04-03T00:51:00;5.53;;;5.03;;
13807;SDS011;40769;51.512;5.494;2023-04-03T00:53:30;5.20;;;4.73;;
13807;SDS011;40769;51.512;5.494;2023-04-03T00:56:10;3.87;;;3.47;;
13807;SDS011;40769;51.512;5.494;2023-04-03T00:58:41;3.20;;;3.00;;
13807;SDS011;40769;51.512;5.494;2023-04-03T01:01:18;4.13;;;3.83;;
13807;SDS011;40769;51.512;5.494;2023-04-03T01:03:50;4.80;;;4.33;;
13807;SDS011;40769;51.512;5.494;2023-04-03T01:06:16;6.20;;;5.57;;
13807;SDS011;40769;51.512;5.494;2023-04-03T01:08:45;5.40;;;4.90;;
13807;SDS011;40769;51.512;5.494;2023-04-03T01:11:14;4.00;;;3.70;;
13807;SDS011;40769;51.512;5.494;2023-04-03T01:13:40;3.80;;;3.40;;
13807;SDS011;40769;51.512;5.494;2023-04-03T01:16:06;4.40;;;4.00;;
13807;SDS011;40769;51.512;5.494;2023-04-03T01:18:32;3.73;;;3.40;;
13807;SDS011;40769;51.512;5.494;2023-04-03T01:26:08;3.73;;;3.43;;
13807;SDS011;40769;51.512;5.494;2023-04-03T01:28:35;4.30;;;3.90;;
13807;SDS011;40769;51.512;5.494;2023-04-03T01:33:47;6.10;;;5.50;;
13807;SDS011;40769;51.512;5.494;2023-04-03T01:36:14;5.70;;;5.20;;
13807;SDS011;40769;51.512;5.494;2023-04-03T01:38:43;5.63;;;5.13;;
13807;SDS011;40769;51.512;5.494;2023-04-03T01:41:09;4.53;;;4.13;;
13807;SDS011;40769;51.512;5.494;2023-04-03T01:43:35;4.03;;;3.67;;
13807;SDS011;40769;51.512;5.494;2023-04-03T01:46:00;4.93;;;4.43;;
13807;SDS011;40769;51.512;5.494;2023-04-03T01:48:26;5.30;;;4.80;;
13807;SDS011;40769;51.512;5.494;2023-04-03T01:50:51;5.93;;;5.33;;
13807;SDS011;40769;51.512;5.494;2023-04-03T01:53:17;5.37;;;4.87;;
13807;SDS011;40769;51.512;5.494;2023-04-03T01:55:42;5.00;;;4.60;;
13807;SDS011;40769;51.512;5.494;2023-04-03T01:58:08;4.73;;;4.30;;
13807;SDS011;40769;51.512;5.494;2023-04-03T02:00:34;4.77;;;4.37;;
13807;SDS011;40769;51.512;5.494;2023-04-03T02:03:00;5.70;;;5.20;;
13807;SDS011;40769;51.512;5.494;2023-04-03T02:05:26;6.10;;;5.60;;
13807;SDS011;40769;51.512;5.494;2023-04-03T02:07:52;6.00;;;5.27;;
13807;SDS011;40769;51.512;5.494;2023-04-03T02:10:18;5.40;;;4.90;;
13807;SDS011;40769;51.512;5.494;2023-04-03T02:12:43;5.80;;;5.23;;
13807;SDS011;40769;51.512;5.494;2023-04-03T02:15:09;4.30;;;3.90;;
13807;SDS011;40769;51.512;5.494;2023-04-03T02:17:35;4.63;;;4.20;;
13807;SDS011;40769;51.512;5.494;2023-04-03T02:20:01;4.90;;;4.43;;
13807;SDS011;40769;51.512;5.494;2023-04-03T02:22:26;4.90;;;4.50;;
13807;SDS011;40769;51.512;5.494;2023-04-03T02:24:52;5.43;;;4.97;;
13807;SDS011;40769;51.512;5.494;2023-04-03T02:27:17;4.00;;;3.70;;
13807;SDS011;40769;51.512;5.494;2023-04-03T02:29:43;3.63;;;3.30;;
13807;SDS011;40769;51.512;5.494;2023-04-03T02:32:09;5.53;;;4.93;;
13807;SDS011;40769;51.512;5.494;2023-04-03T02:34:34;5.80;;;5.30;;
13807;SDS011;40769;51.512;5.494;2023-04-03T02:37:00;5.93;;;5.40;;
13807;SDS011;40769;51.512;5.494;2023-04-03T02:39:26;5.63;;;5.03;;
13807;SDS011;40769;51.512;5.494;2023-04-03T02:41:51;5.70;;;5.13;;
13807;SDS011;40769;51.512;5.494;2023-04-03T02:44:17;4.60;;;4.20;;
13807;SDS011;40769;51.512;5.494;2023-04-03T02:46:43;4.30;;;3.90;;
13807;SDS011;40769;51.512;5.494;2023-04-03T02:49:09;3.40;;;3.10;;
13807;SDS011;40769;51.512;5.494;2023-04-03T02:51:35;3.87;;;3.47;;
13807;SDS011;40769;51.512;5.494;2023-04-03T02:54:01;3.97;;;3.57;;
13807;SDS011;40769;51.512;5.494;2023-04-03T02:56:26;5.23;;;4.73;;
13807;SDS011;40769;51.512;5.494;2023-04-03T02:58:52;3.97;;;3.67;;
13807;SDS011;40769;51.512;5.494;2023-04-03T03:01:18;3.70;;;3.40;;
13807;SDS011;40769;51.512;5.494;2023-04-03T03:03:43;4.03;;;3.57;;
13807;SDS011;40769;51.512;5.494;2023-04-03T03:06:10;4.00;;;3.70;;
13807;SDS011;40769;51.512;5.494;2023-04-03T03:08:37;3.80;;;3.50;;
13807;SDS011;40769;51.512;5.494;2023-04-03T03:11:03;3.80;;;3.50;;
13807;SDS011;40769;51.512;5.494;2023-04-03T03:13:29;3.33;;;3.03;;
13807;SDS011;40769;51.512;5.494;2023-04-03T03:15:55;4.20;;;3.80;;
13807;SDS011;40769;51.512;5.494;2023-04-03T03:18:22;5.03;;;4.53;;
13807;SDS011;40769;51.512;5.494;2023-04-03T03:20:54;3.83;;;3.53;;
13807;SDS011;40769;51.512;5.494;2023-04-03T03:23:21;3.43;;;3.10;;
13807;SDS011;40769;51.512;5.494;2023-04-03T03:25:48;3.30;;;3.00;;
13807;SDS011;40769;51.512;5.494;2023-04-03T03:28:14;3.37;;;3.07;;
13807;SDS011;40769;51.512;5.494;2023-04-03T03:30:40;3.40;;;3.10;;
13807;SDS011;40769;51.512;5.494;2023-04-03T03:33:05;2.83;;;2.60;;
13807;SDS011;40769;51.512;5.494;2023-04-03T03:35:32;2.60;;;2.40;;
13807;SDS011;40769;51.512;5.494;2023-04-03T03:37:57;3.50;;;3.20;;
13807;SDS011;40769;51.512;5.494;2023-04-03T03:40:23;3.37;;;3.10;;
13807;SDS011;40769;51.512;5.494;2023-04-03T03:42:48;3.40;;;3.10;;
13807;SDS011;40769;51.512;5.494;2023-04-03T03:45:14;3.77;;;3.03;;
13807;SDS011;40769;51.512;5.494;2023-04-03T03:47:40;4.10;;;2.80;;
13807;SDS011;40769;51.512;5.494;2023-04-03T03:50:06;4.30;;;2.80;;
13807;SDS011;40769;51.512;5.494;2023-04-03T03:52:32;2.90;;;2.60;;
13807;SDS011;40769;51.512;5.494;2023-04-03T03:54:58;3.20;;;2.90;;
13807;SDS011;40769;51.512;5.494;2023-04-03T03:57:23;2.23;;;1.87;;
13807;SDS011;40769;51.512;5.494;2023-04-03T03:59:51;3.80;;;2.10;;
13807;SDS011;40769;51.512;5.494;2023-04-03T04:02:17;2.90;;;2.60;;
13807;SDS011;40769;51.512;5.494;2023-04-03T04:04:43;3.10;;;2.63;;
13807;SDS011;40769;51.512;5.494;2023-04-03T04:07:08;2.50;;;2.30;;
13807;SDS011;40769;51.512;5.494;2023-04-03T04:09:34;2.53;;;2.33;;
13807;SDS011;40769;51.512;5.494;2023-04-03T04:12:00;3.20;;;2.90;;
13807;SDS011;40769;51.512;5.494;2023-04-03T04:14:26;2.40;;;2.17;;
13807;SDS011;40769;51.512;5.494;2023-04-03T04:16:51;2.23;;;2.00;;
13807;SDS011;40769;51.512;5.494;2023-04-03T04:19:17;2.80;;;2.50;;
13807;SDS011;40769;51.512;5.494;2023-04-03T04:21:42;4.13;;;2.83;;
13807;SDS011;40769;51.512;5.494;2023-04-03T04:24:08;3.60;;;2.53;;
13807;SDS011;40769;51.512;5.494;2023-04-03T04:26:34;2.47;;;2.27;;
13807;SDS011;40769;51.512;5.494;2023-04-03T04:29:00;2.70;;;2.47;;
13807;SDS011;40769;51.512;5.494;2023-04-03T04:31:26;2.03;;;1.80;;
13807;SDS011;40769;51.512;5.494;2023-04-03T04:33:52;2.87;;;2.40;;
13807;SDS011;40769;51.512;5.494;2023-04-03T04:36:17;2.40;;;2.20;;
13807;SDS011;40769;51.512;5.494;2023-04-03T04:38:43;2.23;;;2.03;;
13807;SDS011;40769;51.512;5.494;2023-04-03T04:41:09;3.27;;;2.30;;
13807;SDS011;40769;51.512;5.494;2023-04-03T04:43:35;2.50;;;2.20;;
13807;SDS011;40769;51.512;5.494;2023-04-03T04:46:04;2.43;;;2.07;;
13807;SDS011;40769;51.512;5.494;2023-04-03T04:48:31;2.30;;;1.90;;
13807;SDS011;40769;51.512;5.494;2023-04-03T04:50:57;3.73;;;2.13;;
13807;SDS011;40769;51.512;5.494;2023-04-03T04:53:23;2.03;;;1.80;;
13807;SDS011;40769;51.512;5.494;2023-04-03T04:55:48;3.83;;;2.07;;
13807;SDS011;40769;51.512;5.494;2023-04-03T04:58:14;2.30;;;2.07;;
13807;SDS011;40769;51.512;5.494;2023-04-03T05:00:40;2.27;;;1.97;;
13807;SDS011;40769;51.512;5.494;2023-04-03T05:03:06;2.83;;;2.10;;
13807;SDS011;40769;51.512;5.494;2023-04-03T05:05:32;3.10;;;2.80;;
13807;SDS011;40769;51.512;5.494;2023-04-03T05:07:57;3.73;;;2.80;;
13807;SDS011;40769;51.512;5.494;2023-04-03T05:10:23;2.47;;;2.00;;
13807;SDS011;40769;51.512;5.494;2023-04-03T05:12:48;3.20;;;2.43;;
13807;SDS011;40769;51.512;5.494;2023-04-03T05:15:14;2.50;;;2.27;;
13807;SDS011;40769;51.512;5.494;2023-04-03T05:17:40;3.03;;;2.30;;
13807;SDS011;40769;51.512;5.494;2023-04-03T05:20:05;4.07;;;2.70;;
13807;SDS011;40769;51.512;5.494;2023-04-03T05:22:32;2.63;;;2.00;;
13807;SDS011;40769;51.512;5.494;2023-04-03T05:24:57;3.17;;;2.20;;
13807;SDS011;40769;51.512;5.494;2023-04-03T05:27:23;2.10;;;1.90;;
13807;SDS011;40769;51.512;5.494;2023-04-03T05:29:49;1.93;;;1.63;;
13807;SDS011;40769;51.512;5.494;2023-04-03T05:32:17;2.60;;;2.40;;
13807;SDS011;40769;51.512;5.494;2023-04-03T05:34:42;3.13;;;2.43;;
13807;SDS011;40769;51.512;5.494;2023-04-03T05:37:08;4.33;;;2.33;;
13807;SDS011;40769;51.512;5.494;2023-04-03T05:39:34;3.07;;;2.43;;
13807;SDS011;40769;51.512;5.494;2023-04-03T05:42:00;2.03;;;1.83;;
13807;SDS011;40769;51.512;5.494;2023-04-03T05:44:25;2.37;;;2.17;;
13807;SDS011;40769;51.512;5.494;2023-04-03T05:46:51;3.67;;;2.00;;
13807;SDS011;40769;51.512;5.494;2023-04-03T05:49:17;2.20;;;1.63;;
13807;SDS011;40769;51.512;5.494;2023-04-03T05:51:42;3.13;;;1.90;;
13807;SDS011;40769;51.512;5.494;2023-04-03T05:56:47;2.83;;;2.30;;
13807;SDS011;40769;51.512;5.494;2023-04-03T05:59:14;2.30;;;2.10;;
13807;SDS011;40769;51.512;5.494;2023-04-03T06:01:40;2.60;;;2.10;;
13807;SDS011;40769;51.512;5.494;2023-04-03T06:04:05;3.07;;;2.23;;
13807;SDS011;40769;51.512;5.494;2023-04-03T06:06:47;3.03;;;2.30;;
13807;SDS011;40769;51.512;5.494;2023-04-03T06:09:14;4.33;;;2.23;;
13807;SDS011;40769;51.512;5.494;2023-04-03T06:11:41;2.73;;;2.33;;
13807;SDS011;40769;51.512;5.494;2023-04-03T06:14:08;2.50;;;2.00;;
13807;SDS011;40769;51.512;5.494;2023-04-03T06:16:34;3.40;;;2.10;;
13807;SDS011;40769;51.512;5.494;2023-04-03T06:19:00;3.37;;;2.40;;
13807;SDS011;40769;51.512;5.494;2023-04-03T06:21:25;2.57;;;2.07;;
13807;SDS011;40769;51.512;5.494;2023-04-03T06:23:51;3.63;;;2.20;;
13807;SDS011;40769;51.512;5.494;2023-04-03T06:26:17;2.67;;;2.47;;
13807;SDS011;40769;51.512;5.494;2023-04-03T06:28:42;3.80;;;2.10;;
13807;SDS011;40769;51.512;5.494;2023-04-03T06:31:08;3.17;;;2.30;;
13807;SDS011;40769;51.512;5.494;2023-04-03T06:33:34;2.90;;;2.10;;
13807;SDS011;40769;51.512;5.494;2023-04-03T06:36:02;3.58;;;2.08;;
13807;SDS011;40769;51.512;5.494;2023-04-03T06:38:31;2.88;;;2.03;;
13807;SDS011;40769;51.512;5.494;2023-04-03T06:40:58;2.75;;;2.10;;
13807;SDS011;40769;51.512;5.494;2023-04-03T06:43:24;2.78;;;2.15;;
13807;SDS011;40769;51.512;5.494;2023-04-03T06:45:49;3.20;;;2.22;;
13807;SDS011;40769;51.512;5.494;2023-04-03T06:48:15;2.35;;;2.15;;
13807;SDS011;40769;51.512;5.494;2023-04-03T06:50:41;2.83;;;2.05;;
13807;SDS011;40769;51.512;5.494;2023-04-03T06:53:07;3.10;;;2.00;;
13807;SDS011;40769;51.512;5.494;2023-04-03T06:55:33;2.70;;;2.00;;
13807;SDS011;40769;51.512;5.494;2023-04-03T06:57:59;2.45;;;1.77;;
13807;SDS011;40769;51.512;5.494;2023-04-03T07:00:25;1.85;;;1.65;;
13807;SDS011;40769;51.512;5.494;2023-04-03T07:02:51;2.38;;;2.03;;
13807;SDS011;40769;51.512;5.494;2023-04-03T07:05:16;3.13;;;1.70;;
13807;SDS011;40769;51.512;5.494;2023-04-03T07:07:43;1.92;;;1.70;;
13807;SDS011;40769;51.512;5.494;2023-04-03T07:10:08;3.67;;;2.03;;
13807;SDS011;40769;51.512;5.494;2023-04-03T07:12:35;2.78;;;2.03;;
13807;SDS011;40769;51.512;5.494;2023-04-03T07:15:01;2.65;;;1.90;;
13807;SDS011;40769;51.512;5.494;2023-04-03T07:17:26;2.92;;;1.75;;
13807;SDS011;40769;51.512;5.494;2023-04-03T07:19:52;3.00;;;1.83;;
13807;SDS011;40769;51.512;5.494;2023-04-03T07:22:18;2.60;;;1.80;;
13807;SDS011;40769;51.512;5.494;2023-04-03T07:24:43;3.08;;;1.88;;
13807;SDS011;40769;51.512;5.494;2023-04-03T07:27:09;2.17;;;1.42;;
13807;SDS011;40769;51.512;5.494;2023-04-03T07:29:35;3.10;;;1.77;;
13807;SDS011;40769;51.512;5.494;2023-04-03T07:32:01;2.28;;;1.75;;
13807;SDS011;40769;51.512;5.494;2023-04-03T07:34:27;2.50;;;1.60;;
13807;SDS011;40769;51.512;5.494;2023-04-03T07:36:53;2.72;;;1.77;;
13807;SDS011;40769;51.512;5.494;2023-04-03T07:39:19;2.65;;;1.95;;
13807;SDS011;40769;51.512;5.494;2023-04-03T07:41:45;2.58;;;1.70;;
13807;SDS011;40769;51.512;5.494;2023-04-03T07:44:10;2.83;;;2.15;;
13807;SDS011;40769;51.512;5.494;2023-04-03T07:46:36;3.25;;;1.65;;
13807;SDS011;40769;51.512;5.494;2023-04-03T07:49:02;3.78;;;2.05;;
13807;SDS011;40769;51.512;5.494;2023-04-03T07:51:31;2.22;;;1.70;;
13807;SDS011;40769;51.512;5.494;2023-04-03T07:53:57;2.53;;;1.58;;
13807;SDS011;40769;51.512;5.494;2023-04-03T07:56:22;2.53;;;1.58;;
13807;SDS011;40769;51.512;5.494;2023-04-03T07:58:48;3.05;;;1.65;;
13807;SDS011;40769;51.512;5.494;2023-04-03T08:01:14;1.80;;;1.40;;
13807;SDS011;40769;51.512;5.494;2023-04-03T08:03:39;3.45;;;1.58;;
13807;SDS011;40769;51.512;5.494;2023-04-03T08:06:06;2.42;;;1.50;;
13807;SDS011;40769;51.512;5.494;2023-04-03T08:08:33;2.15;;;1.63;;
13807;SDS011;40769;51.512;5.494;2023-04-03T08:11:00;2.35;;;1.95;;
13807;SDS011;40769;51.512;5.494;2023-04-03T08:13:27;2.05;;;1.52;;
13807;SDS011;40769;51.512;5.494;2023-04-03T08:15:53;2.53;;;1.50;;
13807;SDS011;40769;51.512;5.494;2023-04-03T08:18:20;2.60;;;1.30;;
13807;SDS011;40769;51.512;5.494;2023-04-03T08:20:49;2.35;;;1.40;;
13807;SDS011;40769;51.512;5.494;2023-04-03T08:23:16;2.10;;;1.70;;
13807;SDS011;40769;51.512;5.494;2023-04-03T08:25:42;2.08;;;1.42;;
13807;SDS011;40769;51.512;5.494;2023-04-03T08:28:11;2.00;;;1.35;;
13807;SDS011;40769;51.512;5.494;2023-04-03T08:30:40;3.03;;;1.50;;
13807;SDS011;40769;51.512;5.494;2023-04-03T08:33:07;2.05;;;1.35;;
13807;SDS011;40769;51.512;5.494;2023-04-03T08:35:37;2.47;;;1.63;;
13807;SDS011;40769;51.512;5.494;2023-04-03T08:38:05;1.92;;;1.50;;
13807;SDS011;40769;51.512;5.494;2023-04-03T08:40:31;1.65;;;1.20;;
13807;SDS011;40769;51.512;5.494;2023-04-03T08:45:57;3.42;;;1.50;;
13807;SDS011;40769;51.512;5.494;2023-04-03T08:48:32;1.67;;;1.17;;
13807;SDS011;40769;51.512;5.494;2023-04-03T08:51:01;1.98;;;1.10;;
13807;SDS011;40769;51.512;5.494;2023-04-03T08:53:31;1.38;;;1.08;;
13807;SDS011;40769;51.512;5.494;2023-04-03T08:56:02;1.90;;;1.10;;
13807;SDS011;40769;51.512;5.494;2023-04-03T08:58:33;1.77;;;1.40;;
13807;SDS011;40769;51.512;5.494;2023-04-03T09:01:21;2.25;;;1.15;;
13807;SDS011;40769;51.512;5.494;2023-04-03T09:03:52;1.83;;;1.10;;
13807;SDS011;40769;51.512;5.494;2023-04-03T09:06:22;0.95;;;0.80;;
13807;SDS011;40769;51.512;5.494;2023-04-03T09:09:04;1.50;;;0.90;;
13807;SDS011;40769;51.512;5.494;2023-04-03T09:14:43;1.95;;;1.27;;
13807;SDS011;40769;51.512;5.494;2023-04-03T09:17:43;1.40;;;0.82;;
13807;SDS011;40769;51.512;5.494;2023-04-03T09:20:24;1.42;;;0.80;;
13807;SDS011;40769;51.512;5.494;2023-04-03T09:23:29;0.93;;;0.70;;
13807;SDS011;40769;51.512;5.494;2023-04-03T09:26:02;1.42;;;0.90;;
13807;SDS011;40769;51.512;5.494;2023-04-03T09:28:35;2.20;;;0.77;;
13807;SDS011;40769;51.512;5.494;2023-04-03T09:31:20;2.00;;;0.88;;
13807;SDS011;40769;51.512;5.494;2023-04-03T09:33:56;1.13;;;0.73;;
13807;SDS011;40769;51.512;5.494;2023-04-03T09:36:41;0.77;;;0.70;;
13807;SDS011;40769;51.512;5.494;2023-04-03T09:39:14;1.58;;;0.80;;
13807;SDS011;40769;51.512;5.494;2023-04-03T09:42:01;1.00;;;0.70;;
13807;SDS011;40769;51.512;5.494;2023-04-03T09:44:28;1.50;;;0.85;;
13807;SDS011;40769;51.512;5.494;2023-04-03T09:47:17;1.02;;;0.60;;
13807;SDS011;40769;51.512;5.494;2023-04-03T09:49:50;1.20;;;0.70;;
13807;SDS011;40769;51.512;5.494;2023-04-03T09:52:33;0.77;;;0.57;;
13807;SDS011;40769;51.512;5.494;2023-04-03T09:55:17;0.73;;;0.63;;
13807;SDS011;40769;51.512;5.494;2023-04-03T09:57:54;1.10;;;0.77;;
13807;SDS011;40769;51.512;5.494;2023-04-03T10:02:58;0.70;;;0.65;;
13807;SDS011;40769;51.512;5.494;2023-04-03T10:05:37;1.17;;;0.70;;
13807;SDS011;40769;51.512;5.494;2023-04-03T10:10:36;1.02;;;0.60;;
13807;SDS011;40769;51.512;5.494;2023-04-03T10:13:18;0.88;;;0.50;;
13807;SDS011;40769;51.512;5.494;2023-04-03T10:18:49;1.00;;;0.40;;
13807;SDS011;40769;51.512;5.494;2023-04-03T10:24:18;0.70;;;0.60;;
13807;SDS011;40769;51.512;5.494;2023-04-03T10:26:52;0.80;;;0.60;;
13807;SDS011;40769;51.512;5.494;2023-04-03T10:29:59;1.00;;;0.60;;
13807;SDS011;40769;51.512;5.494;2023-04-03T10:41:11;1.33;;;0.60;;
13807;SDS011;40769;51.512;5.494;2023-04-03T10:47:11;1.25;;;0.70;;
13807;SDS011;40769;51.512;5.494;2023-04-03T10:50:07;1.00;;;0.70;;
13807;SDS011;40769;51.512;5.494;2023-04-03T10:52:50;1.20;;;0.50;;
13807;SDS011;40769;51.512;5.494;2023-04-03T10:57:51;1.02;;;0.70;;
13807;SDS011;40769;51.512;5.494;2023-04-03T11:00:28;0.90;;;0.60;;
13807;SDS011;40769;51.512;5.494;2023-04-03T11:03:06;0.70;;;0.55;;
13807;SDS011;40769;51.512;5.494;2023-04-03T11:05:45;0.60;;;0.50;;
13807;SDS011;40769;51.512;5.494;2023-04-03T11:08:21;0.70;;;0.60;;
13807;SDS011;40769;51.512;5.494;2023-04-03T11:10:53;1.00;;;0.52;;
13807;SDS011;40769;51.512;5.494;2023-04-03T11:13:30;0.98;;;0.60;;
13807;SDS011;40769;51.512;5.494;2023-04-03T11:16:02;0.90;;;0.63;;
13807;SDS011;40769;51.512;5.494;2023-04-03T11:18:41;1.65;;;0.82;;
13807;SDS011;40769;51.512;5.494;2023-04-03T11:23:41;0.60;;;0.60;;
13807;SDS011;40769;51.512;5.494;2023-04-03T11:26:13;0.80;;;0.55;;
13807;SDS011;40769;51.512;5.494;2023-04-03T11:28:45;0.60;;;0.60;;
13807;SDS011;40769;51.512;5.494;2023-04-03T11:42:15;0.50;;;0.43;;
13807;SDS011;40769;51.512;5.494;2023-04-03T11:44:48;0.70;;;0.45;;
13807;SDS011;40769;51.512;5.494;2023-04-03T11:47:43;0.80;;;0.60;;
13807;SDS011;40769;51.512;5.494;2023-04-03T12:18:58;0.50;;;0.43;;
13807;SDS011;40769;51.512;5.494;2023-04-03T12:23:59;1.10;;;0.70;;
13807;SDS011;40769;51.512;5.494;2023-04-03T12:26:51;0.90;;;0.80;;
13807;SDS011;40769;51.512;5.494;2023-04-03T12:32:54;1.30;;;0.75;;
13807;SDS011;40769;51.512;5.494;2023-04-03T12:38:14;1.05;;;0.80;;
13807;SDS011;40769;51.512;5.494;2023-04-03T12:46:14;1.30;;;0.80;;
13807;SDS011;40769;51.512;5.494;2023-04-03T12:48:48;0.98;;;0.70;;
13807;SDS011;40769;51.512;5.494;2023-04-03T12:54:03;1.13;;;0.90;;
13807;SDS011;40769;51.512;5.494;2023-04-03T12:56:44;0.73;;;0.60;;
13807;SDS011;40769;51.512;5.494;2023-04-03T13:01:41;1.02;;;0.60;;
13807;SDS011;40769;51.512;5.494;2023-04-03T13:04:06;1.48;;;0.80;;
13807;SDS011;40769;51.512;5.494;2023-04-03T13:06:42;0.80;;;0.70;;
13807;SDS011;40769;51.512;5.494;2023-04-03T13:09:25;1.67;;;1.00;;
13807;SDS011;40769;51.512;5.494;2023-04-03T13:12:26;1.10;;;0.80;;
13807;SDS011;40769;51.512;5.494;2023-04-03T13:14:55;0.98;;;0.80;;
13807;SDS011;40769;51.512;5.494;2023-04-03T13:17:23;1.15;;;0.70;;
13807;SDS011;40769;51.512;5.494;2023-04-03T13:19:51;2.00;;;1.02;;
13807;SDS011;40769;51.512;5.494;2023-04-03T13:24:58;1.15;;;0.68;;
13807;SDS011;40769;51.512;5.494;2023-04-03T13:27:26;1.13;;;0.77;;
13807;SDS011;40769;51.512;5.494;2023-04-03T13:29:57;1.10;;;0.90;;
13807;SDS011;40769;51.512;5.494;2023-04-03T13:32:24;1.38;;;0.73;;
13807;SDS011;40769;51.512;5.494;2023-04-03T13:34:53;0.63;;;0.63;;
13807;SDS011;40769;51.512;5.494;2023-04-03T13:37:26;1.23;;;0.88;;
13807;SDS011;40769;51.512;5.494;2023-04-03T13:40:09;2.28;;;1.00;;
13807;SDS011;40769;51.512;5.494;2023-04-03T13:42:38;0.77;;;0.70;;
13807;SDS011;40769;51.512;5.494;2023-04-03T13:47:39;1.38;;;1.00;;
13807;SDS011;40769;51.512;5.494;2023-04-03T13:52:54;1.15;;;0.82;;
13807;SDS011;40769;51.512;5.494;2023-04-03T13:55:27;1.58;;;0.90;;
13807;SDS011;40769;51.512;5.494;2023-04-03T13:57:59;1.02;;;0.80;;
13807;SDS011;40769;51.512;5.494;2023-04-03T14:00:53;2.67;;;0.98;;
13807;SDS011;40769;51.512;5.494;2023-04-03T14:05:49;1.52;;;0.90;;
13807;SDS011;40769;51.512;5.494;2023-04-03T14:08:16;1.55;;;1.17;;
13807;SDS011;40769;51.512;5.494;2023-04-03T14:10:42;1.10;;;1.00;;
13807;SDS011;40769;51.512;5.494;2023-04-03T14:13:12;1.23;;;0.95;;
13807;SDS011;40769;51.512;5.494;2023-04-03T14:15:40;1.60;;;0.80;;
13807;SDS011;40769;51.512;5.494;2023-04-03T14:18:09;1.40;;;1.10;;
13807;SDS011;40769;51.512;5.494;2023-04-03T14:20:36;1.58;;;1.20;;
13807;SDS011;40769;51.512;5.494;2023-04-03T14:23:02;1.73;;;1.23;;
13807;SDS011;40769;51.512;5.494;2023-04-03T14:25:28;2.45;;;1.00;;
13807;SDS011;40769;51.512;5.494;2023-04-03T14:27:54;1.45;;;1.10;;
13807;SDS011;40769;51.512;5.494;2023-04-03T14:30:25;1.95;;;1.35;;
13807;SDS011;40769;51.512;5.494;2023-04-03T14:32:56;1.48;;;0.80;;
13807;SDS011;40769;51.512;5.494;2023-04-03T14:35:22;1.13;;;0.93;;
13807;SDS011;40769;51.512;5.494;2023-04-03T14:37:49;1.83;;;0.90;;
13807;SDS011;40769;51.512;5.494;2023-04-03T14:40:21;1.85;;;1.10;;
13807;SDS011;40769;51.512;5.494;2023-04-03T14:42:52;1.70;;;1.20;;
13807;SDS011;40769;51.512;5.494;2023-04-03T14:45:20;1.30;;;1.00;;
13807;SDS011;40769;51.512;5.494;2023-04-03T14:47:48;1.42;;;0.93;;
13807;SDS011;40769;51.512;5.494;2023-04-03T14:50:17;1.27;;;1.00;;
13807;SDS011;40769;51.512;5.494;2023-04-03T14:52:46;1.17;;;0.90;;
13807;SDS011;40769;51.512;5.494;2023-04-03T14:55:14;1.02;;;0.85;;
13807;SDS011;40769;51.512;5.494;2023-04-03T14:57:42;1.77;;;0.90;;
13807;SDS011;40769;51.512;5.494;2023-04-03T15:00:19;1.95;;;1.10;;
13807;SDS011;40769;51.512;5.494;2023-04-03T15:02:46;2.25;;;1.10;;
13807;SDS011;40769;51.512;5.494;2023-04-03T15:05:13;1.30;;;0.95;;
13807;SDS011;40769;51.512;5.494;2023-04-03T15:07:40;1.30;;;1.00;;
13807;SDS011;40769;51.512;5.494;2023-04-03T15:12:46;1.15;;;1.00;;
13807;SDS011;40769;51.512;5.494;2023-04-03T15:15:13;2.65;;;1.10;;
13807;SDS011;40769;51.512;5.494;2023-04-03T15:17:40;1.00;;;0.90;;
13807;SDS011;40769;51.512;5.494;2023-04-03T15:20:40;1.15;;;0.85;;
13807;SDS011;40769;51.512;5.494;2023-04-03T15:22:59;1.55;;;1.25;;
13807;SDS011;40769;51.512;5.494;2023-04-03T15:25:29;1.67;;;0.98;;
13807;SDS011;40769;51.512;5.494;2023-04-03T15:27:56;1.20;;;0.80;;
13807;SDS011;40769;51.512;5.494;2023-04-03T15:30:22;1.85;;;0.93;;
13807;SDS011;40769;51.512;5.494;2023-04-03T15:32:48;1.40;;;1.00;;
13807;SDS011;40769;51.512;5.494;2023-04-03T15:35:14;1.38;;;1.27;;
13807;SDS011;40769;51.512;5.494;2023-04-03T15:37:40;1.88;;;1.20;;
13807;SDS011;40769;51.512;5.494;2023-04-03T15:40:06;1.90;;;1.20;;
13807;SDS011;40769;51.512;5.494;2023-04-03T15:42:33;2.05;;;1.05;;
13807;SDS011;40769;51.512;5.494;2023-04-03T15:44:59;1.75;;;1.00;;
13807;SDS011;40769;51.512;5.494;2023-04-03T15:47:25;1.90;;;1.35;;
13807;SDS011;40769;51.512;5.494;2023-04-03T15:49:51;1.30;;;1.20;;
13807;SDS011;40769;51.512;5.494;2023-04-03T15:52:19;2.28;;;1.38;;
13807;SDS011;40769;51.512;5.494;2023-04-03T15:54:44;2.25;;;1.33;;
13807;SDS011;40769;51.512;5.494;2023-04-03T15:57:10;1.90;;;1.20;;
13807;SDS011;40769;51.512;5.494;2023-04-03T15:59:36;1.52;;;1.00;;
13807;SDS011;40769;51.512;5.494;2023-04-03T16:02:01;2.70;;;1.40;;
13807;SDS011;40769;51.512;5.494;2023-04-03T16:04:29;2.00;;;1.17;;
13807;SDS011;40769;51.512;5.494;2023-04-03T16:06:55;1.35;;;1.00;;
13807;SDS011;40769;51.512;5.494;2023-04-03T16:09:21;2.10;;;1.30;;
13807;SDS011;40769;51.512;5.494;2023-04-03T16:11:47;1.45;;;1.30;;
13807;SDS011;40769;51.512;5.494;2023-04-03T16:14:13;1.38;;;1.20;;
13807;SDS011;40769;51.512;5.494;2023-04-03T16:16:38;1.60;;;1.05;;
13807;SDS011;40769;51.512;5.494;2023-04-03T16:19:04;1.60;;;0.98;;
13807;SDS011;40769;51.512;5.494;2023-04-03T16:21:36;1.90;;;1.10;;
13807;SDS011;40769;51.512;5.494;2023-04-03T16:24:02;1.50;;;0.93;;
13807;SDS011;40769;51.512;5.494;2023-04-03T16:26:28;1.30;;;0.90;;
13807;SDS011;40769;51.512;5.494;2023-04-03T16:28:54;1.75;;;1.00;;
13807;SDS011;40769;51.512;5.494;2023-04-03T16:31:20;1.75;;;1.02;;
13807;SDS011;40769;51.512;5.494;2023-04-03T16:33:46;1.25;;;1.00;;
13807;SDS011;40769;51.512;5.494;2023-04-03T16:36:12;1.35;;;1.10;;
13807;SDS011;40769;51.512;5.494;2023-04-03T16:38:37;2.15;;;1.00;;
13807;SDS011;40769;51.512;5.494;2023-04-03T16:41:03;1.42;;;1.20;;
13807;SDS011;40769;51.512;5.494;2023-04-03T16:43:32;3.15;;;1.23;;
13807;SDS011;40769;51.512;5.494;2023-04-03T16:46:00;3.03;;;1.13;;
13807;SDS011;40769;51.512;5.494;2023-04-03T16:48:27;2.28;;;1.48;;
13807;SDS011;40769;51.512;5.494;2023-04-03T16:50:53;2.17;;;1.80;;
13807;SDS011;40769;51.512;5.494;2023-04-03T16:53:19;2.60;;;1.35;;
13807;SDS011;40769;51.512;5.494;2023-04-03T16:55:45;3.08;;;1.40;;